Time;durP1;ratioP1;P1;durP2;ratioP2;P2;SDS_P1;SDS_P2;PMS_P1;PMS_P2;Temp;Humidity;BMP_temperature;BMP_pressure;BME280_temperature;BME280_humidity;BME280_pressure;Samples;Min_cycle;Max_cycle;Signal;HPM_P1;HPM_P2
2022/05/24 00:03:08;;;;;;;10.47;4.47;;;;;12.30;99709.00;;;;10026582;29;20260;-73
2022/05/24 00:08:10;;;;;;;9.73;4.87;;;;;12.20;99713.00;;;;10025947;29;20201;-73
2022/05/24 00:13:12;;;;;;;9.40;3.90;;;;;12.00;99715.00;;;;10011982;29;20347;-73
2022/05/24 00:18:19;;;;;;;7.33;3.63;;;;;11.90;99726.00;;;;9996994;29;20227;-73
2022/05/24 00:23:23;;;;;;;10.43;3.33;;;;;11.90;99723.00;;;;10045197;29;20208;-73
2022/05/24 00:28:27;;;;;;;11.97;4.73;;;;;11.80;99730.00;;;;10044198;29;20192;-73
2022/05/24 00:33:31;;;;;;;14.33;3.43;;;;;11.90;99702.00;;;;10030451;29;20189;-73
2022/05/24 00:38:36;;;;;;;7.83;2.97;;;;;11.80;99693.00;;;;10026274;29;20221;-73
2022/05/24 00:43:46;;;;;;;11.03;3.17;;;;;11.70;99699.00;;;;10025553;29;20205;-73
2022/05/24 00:48:55;;;;;;;8.63;3.23;;;;;11.70;99699.00;;;;10024601;29;20200;-73
2022/05/24 00:53:57;;;;;;;7.27;2.87;;;;;11.80;99704.00;;;;10024531;29;20891;-73
2022/05/24 00:59:03;;;;;;;7.30;3.50;;;;;11.70;99700.00;;;;10025525;29;20311;-77
2022/05/24 01:04:07;;;;;;;6.23;3.07;;;;;11.70;99691.00;;;;10041011;29;20229;-76
2022/05/24 01:09:16;;;;;;;9.80;3.63;;;;;11.60;99689.00;;;;10009698;29;20606;-77
2022/05/24 01:14:21;;;;;;;9.83;3.20;;;;;11.60;99679.00;;;;10018184;29;20700;-77
2022/05/24 01:19:41;;;;;;;8.80;2.97;;;;;11.50;99687.00;;;;10052617;29;20205;-77
2022/05/24 01:25:00;;;;;;;7.77;2.80;;;;;11.50;99683.00;;;;10095483;29;20202;-77
2022/05/24 01:30:04;;;;;;;9.90;2.67;;;;;11.60;99709.00;;;;10047112;29;20676;-77
2022/05/24 01:40:28;;;;;;;5.50;2.47;;;;;11.70;99692.00;;;;10014376;29;20212;-77
2022/05/24 01:45:35;;;;;;;5.23;2.50;;;;;11.80;99675.00;;;;10024870;29;20205;-77
2022/05/24 01:50:38;;;;;;;5.90;2.10;;;;;11.70;99662.00;;;;10040088;29;20695;-77
2022/05/24 01:55:53;;;;;;;13.03;2.73;;;;;11.60;99689.00;;;;10022632;29;20198;-77
2022/05/24 02:01:16;;;;;;;4.60;2.10;;;;;11.50;99707.00;;;;10014569;29;20227;-77
2022/05/24 02:06:24;;;;;;;7.73;2.40;;;;;11.50;99689.00;;;;10023293;29;20200;-77
2022/05/24 02:11:31;;;;;;;8.03;2.33;;;;;11.50;99698.00;;;;10023986;29;20198;-77
2022/05/24 02:16:35;;;;;;;8.83;2.70;;;;;11.50;99699.00;;;;10024312;29;20257;-77
2022/05/24 02:21:44;;;;;;;12.13;2.47;;;;;11.60;99690.00;;;;10038567;29;20313;-77
2022/05/24 02:26:47;;;;;;;10.40;2.37;;;;;11.70;99694.00;;;;10023632;29;20204;-77
2022/05/24 02:31:50;;;;;;;6.23;2.60;;;;;11.80;99702.00;;;;10038578;29;20209;-77
2022/05/24 02:36:52;;;;;;;10.30;2.50;;;;;11.80;99703.00;;;;10007197;29;20256;-77
2022/05/24 02:41:53;;;;;;;11.73;2.43;;;;;11.90;99718.00;;;;10011050;29;20293;-77
2022/05/24 02:46:55;;;;;;;7.40;2.33;;;;;11.90;99710.00;;;;10008283;29;20198;-77
2022/05/24 02:51:57;;;;;;;8.67;2.07;;;;;11.80;99720.00;;;;9993369;29;20194;-77
2022/05/24 02:57:01;;;;;;;4.77;2.03;;;;;11.80;99712.00;;;;10041546;29;20550;-77
2022/05/24 03:02:05;;;;;;;4.83;1.87;;;;;11.80;99723.00;;;;10014560;29;20229;-77
2022/05/24 03:18:08;;;;;;;7.13;2.23;;;;;11.70;99745.00;;;;10008563;29;20657;-77
2022/05/24 03:23:12;;;;;;;9.77;2.07;;;;;11.70;99751.00;;;;10044960;29;20215;-77
2022/05/24 03:28:18;;;;;;;7.47;2.20;;;;;11.60;99760.00;;;;10027638;29;20251;-77
2022/05/24 03:33:21;;;;;;;8.53;2.00;;;;;11.60;99738.00;;;;10037282;29;20197;-77
2022/05/24 03:38:23;;;;;;;4.40;1.90;;;;;11.60;99744.00;;;;10044069;29;20213;-77
2022/05/24 03:43:26;;;;;;;7.87;2.10;;;;;11.60;99774.00;;;;10029074;29;20205;-77
2022/05/24 03:48:28;;;;;;;8.87;2.13;;;;;11.60;99780.00;;;;10028733;29;20213;-77
2022/05/24 03:53:31;;;;;;;8.53;2.47;;;;;11.60;99769.00;;;;10009759;29;20649;-77
2022/05/24 03:58:34;;;;;;;8.43;2.20;;;;;11.50;99744.00;;;;10029563;29;20269;-77
2022/05/24 04:03:36;;;;;;;5.47;2.30;;;;;11.50;99741.00;;;;10010419;29;20225;-77
2022/05/24 04:08:38;;;;;;;8.37;2.00;;;;;11.50;99749.00;;;;10004984;29;20197;-76
2022/05/24 04:13:42;;;;;;;6.70;2.40;;;;;11.50;99759.00;;;;10014257;29;20249;-76
2022/05/24 04:18:44;;;;;;;6.07;2.03;;;;;11.50;99772.00;;;;10026874;29;20210;-77
2022/05/24 04:23:46;;;;;;;9.20;2.17;;;;;11.50;99783.00;;;;10028712;29;20204;-76
2022/05/24 04:28:47;;;;;;;5.63;2.40;;;;;11.40;99802.00;;;;10027482;29;20197;-76
2022/05/24 04:33:50;;;;;;;10.07;2.90;;;;;11.40;99812.00;;;;10027223;29;20709;-77
2022/05/24 04:38:51;;;;;;;11.67;2.20;;;;;11.30;99823.00;;;;10025503;29;20228;-76
2022/05/24 04:43:54;;;;;;;7.77;3.00;;;;;11.30;99826.00;;;;10004389;29;20212;-76
2022/05/24 04:48:55;;;;;;;9.17;2.67;;;;;11.30;99830.00;;;;9988747;29;20193;-76
2022/05/24 04:53:58;;;;;;;10.00;2.93;;;;;11.40;99838.00;;;;9990019;29;20253;-77
2022/05/24 04:58:59;;;;;;;10.67;3.23;;;;;11.60;99853.00;;;;10041526;29;20221;-77
2022/05/24 05:04:02;;;;;;;9.37;3.37;;;;;11.90;99863.00;;;;10025216;29;20224;-77
2022/05/24 05:09:04;;;;;;;7.20;3.00;;;;;12.10;99854.00;;;;10025942;29;20245;-77
2022/05/24 05:14:08;;;;;;;9.17;3.20;;;;;12.40;99859.00;;;;10057379;29;20669;-77
2022/05/24 05:19:12;;;;;;;8.63;3.27;;;;;12.90;99845.00;;;;10011159;29;20339;-77
2022/05/24 05:24:13;;;;;;;14.23;3.00;;;;;13.80;99836.00;;;;10005948;29;20653;-77
2022/05/24 05:29:15;;;;;;;8.90;3.20;;;;;14.30;99836.00;;;;10005901;29;20191;-77
2022/05/24 05:34:21;;;;;;;5.97;2.00;;;;;14.40;99837.00;;;;10025240;29;20649;-77
2022/05/24 05:39:24;;;;;;;5.40;1.80;;;;;14.70;99849.00;;;;10039395;29;20243;-76
2022/05/24 05:44:26;;;;;;;7.77;1.83;;;;;15.10;99872.00;;;;10024725;29;20284;-77
2022/05/24 05:49:30;;;;;;;8.97;2.00;;;;;15.40;99866.00;;;;9999647;29;20693;-77
2022/05/24 05:54:33;;;;;;;8.20;1.90;;;;;15.50;99880.00;;;;9971572;29;20206;-77
2022/05/24 05:59:35;;;;;;;6.07;1.63;;;;;14.90;99896.00;;;;9989159;29;20239;-77
2022/05/24 06:04:37;;;;;;;4.27;1.77;;;;;14.80;99896.00;;;;10038044;29;20232;-77
2022/05/24 06:09:39;;;;;;;7.30;1.83;;;;;16.00;99890.00;;;;10052619;29;20196;-77
2022/05/24 06:14:41;;;;;;;4.47;1.37;;;;;17.10;99903.00;;;;10008703;29;20227;-77
2022/05/24 06:20:01;;;;;;;4.65;1.27;;;;;17.50;99914.00;;;;10010507;29;20224;-77
2022/05/24 06:25:04;;;;;;;5.60;1.30;;;;;16.50;99938.00;;;;10041513;29;20198;-77
2022/05/24 06:30:07;;;;;;;5.63;1.60;;;;;15.50;99933.00;;;;10011332;29;20197;-77
2022/05/24 06:35:09;;;;;;;5.67;1.43;;;;;16.30;99934.00;;;;9998696;29;20832;-77
2022/05/24 06:40:14;;;;;;;6.40;1.80;;;;;16.50;99944.00;;;;9986026;29;20294;-77
2022/05/24 06:45:17;;;;;;;7.38;1.92;;;;;16.00;99949.00;;;;10027831;29;20205;-77
2022/05/24 06:50:20;;;;;;;3.67;2.00;;;;;16.50;99959.00;;;;10038405;29;20689;-77
2022/05/24 06:55:23;;;;;;;3.05;1.50;;;;;16.20;99948.00;;;;10037810;29;20204;-77
2022/05/24 07:05:45;;;;;;;6.95;1.67;;;;;17.00;99977.00;;;;10023609;29;20224;-77
2022/05/24 07:10:51;;;;;;;2.25;1.15;;;;;16.70;99964.00;;;;10038475;29;20212;-77
2022/05/24 07:15:53;;;;;;;4.57;1.85;;;;;16.60;99979.00;;;;10023951;29;20197;-77
2022/05/24 07:20:55;;;;;;;3.85;1.65;;;;;16.50;99984.00;;;;10051278;29;20217;-77
2022/05/24 07:26:09;;;;;;;6.22;2.10;;;;;16.50;99988.00;;;;10024641;29;20213;-77
2022/05/24 07:31:10;;;;;;;5.38;2.10;;;;;16.50;99995.00;;;;10036780;29;20205;-77
2022/05/24 07:36:13;;;;;;;5.00;1.80;;;;;16.70;100003.00;;;;10007592;29;20222;-77
2022/05/24 07:46:36;;;;;;;2.67;1.33;;;;;18.30;100028.00;;;;10062068;29;20224;-77
2022/05/24 07:51:38;;;;;;;3.78;1.10;;;;;19.00;100038.00;;;;10029982;29;20209;-77
2022/05/24 07:56:39;;;;;;;4.03;1.20;;;;;19.90;100042.00;;;;10045407;29;20651;-77
2022/05/24 08:01:41;;;;;;;1.67;1.40;;;;;19.40;100056.00;;;;10045949;29;20236;-77
2022/05/24 08:06:43;;;;;;;4.45;1.42;;;;;19.20;100040.00;;;;10030510;29;20661;-78
2022/05/24 08:11:45;;;;;;;4.70;1.35;;;;;20.70;100044.00;;;;10029953;29;20672;-77
2022/05/24 08:16:47;;;;;;;4.05;1.35;;;;;20.40;100043.00;;;;10031667;29;20208;-78
2022/05/24 08:21:49;;;;;;;4.88;1.42;;;;;19.60;100068.00;;;;10015217;29;20292;-77
2022/05/24 08:26:51;;;;;;;3.25;1.30;;;;;20.10;100068.00;;;;9981013;29;20803;-77
2022/05/24 08:31:52;;;;;;;2.15;1.27;;;;;20.60;100073.00;;;;10043112;29;20197;-78
2022/05/24 08:36:56;;;;;;;2.45;0.98;;;;;20.70;100084.00;;;;10029464;29;20197;-77
2022/05/24 08:42:06;;;;;;;5.22;1.27;;;;;19.70;100086.00;;;;10029294;29;20213;-78
2022/05/24 08:52:45;;;;;;;2.97;1.30;;;;;18.30;100096.00;;;;10044872;29;20204;-77
2022/05/24 08:57:52;;;;;;;2.50;1.00;;;;;18.70;100095.00;;;;10044814;29;20201;-78
2022/05/24 09:02:55;;;;;;;5.32;1.17;;;;;20.00;100104.00;;;;10017254;29;20224;-77
2022/05/24 09:08:14;;;;;;;6.80;0.95;;;;;21.30;100098.00;;;;10016270;29;20204;-78
2022/05/24 09:13:23;;;;;;;1.38;1.17;;;;;22.80;100089.00;;;;10046230;29;20189;-77
2022/05/24 09:18:36;;;;;;;3.08;0.90;;;;;22.40;100103.00;;;;10031135;29;20206;-78
2022/05/24 09:23:46;;;;;;;3.03;1.20;;;;;23.50;100100.00;;;;10006092;29;20229;-78
2022/05/24 09:28:57;;;;;;;4.20;1.05;;;;;22.10;100097.00;;;;10038971;29;20210;-78
2022/05/24 09:34:07;;;;;;;1.60;1.00;;;;;22.30;100104.00;;;;10026174;29;20231;-77
2022/05/24 09:39:25;;;;;;;2.25;0.85;;;;;23.60;100100.00;;;;10026168;29;20202;-77
2022/05/24 09:44:50;;;;;;;1.27;0.70;;;;;23.80;100115.00;;;;9977405;29;20250;-77
2022/05/24 09:49:54;;;;;;;0.55;0.55;;;;;24.00;100116.00;;;;10015392;29;20254;-78
2022/05/24 09:55:00;;;;;;;1.80;0.80;;;;;23.00;100116.00;;;;10031001;29;20273;-78
2022/05/24 10:00:20;;;;;;;3.50;0.80;;;;;22.30;100123.00;;;;10045637;29;20209;-78
2022/05/24 10:05:25;;;;;;;3.45;1.05;;;;;21.20;100112.00;;;;10031051;29;20261;-78
2022/05/24 10:10:39;;;;;;;5.70;0.90;;;;;22.90;100112.00;;;;10019402;29;20676;-77
2022/05/24 10:15:59;;;;;;;4.68;0.85;;;;;24.30;100121.00;;;;10051960;29;20200;-78
2022/05/24 10:21:18;;;;;;;1.35;0.60;;;;;25.10;100129.00;;;;10023220;29;20688;-76
2022/05/24 10:26:39;;;;;;;2.33;0.80;;;;;24.00;100148.00;;;;10011937;29;20200;-78
2022/05/24 10:32:02;;;;;;;3.22;0.93;;;;;21.90;100148.00;;;;10043990;29;20243;-78
2022/05/24 10:42:39;;;;;;;2.65;0.88;;;;;24.60;100155.00;;;;10040866;29;20231;-78
2022/05/24 10:48:03;;;;;;;2.15;0.68;;;;;25.00;100147.00;;;;10044718;29;20253;-78
2022/05/24 10:53:38;;;;;;;1.83;0.80;;;;;25.50;100143.00;;;;10061430;29;20211;-77
2022/05/24 10:58:42;;;;;;;2.35;0.55;;;;;25.80;100143.00;;;;10025840;29;20208;-76
2022/05/24 11:03:56;;;;;;;6.75;0.80;;;;;25.80;100146.00;;;;10041864;29;20221;-76
2022/05/24 11:09:13;;;;;;;3.60;1.02;;;;;25.80;100143.00;;;;10047802;29;20209;-77
2022/05/24 11:14:23;;;;;;;1.45;0.80;;;;;26.90;100143.00;;;;9998583;29;20276;-76
2022/05/24 11:19:36;;;;;;;2.42;0.90;;;;;25.80;100159.00;;;;10026770;29;20193;-77
2022/05/24 11:24:52;;;;;;;4.78;0.70;;;;;23.90;100173.00;;;;10020186;29;20208;-79
2022/05/24 11:30:10;;;;;;;1.98;0.80;;;;;21.80;100178.00;;;;10048671;29;20264;-78
2022/05/24 11:35:35;;;;;;;2.60;1.00;;;;;20.50;100192.00;;;;10011520;29;20193;-79
2022/05/24 11:40:54;;;;;;;3.25;0.90;;;;;19.90;100204.00;;;;9996445;29;20300;-78
2022/05/24 11:46:04;;;;;;;1.75;0.90;;;;;19.50;100208.00;;;;9999427;29;20204;-78
2022/05/24 11:51:27;;;;;;;2.67;0.90;;;;;19.10;100215.00;;;;10035346;29;20228;-78
2022/05/24 11:56:30;;;;;;;0.30;0.30;;;;;19.90;100201.00;;;;10037205;29;20208;-79
2022/05/24 12:01:37;;;;;;;2.45;0.80;;;;;22.60;100211.00;;;;10015236;29;20224;-78
2022/05/24 12:12:36;;;;;;;1.80;0.73;;;;;24.40;100208.00;;;;10040018;29;20188;-79
2022/05/24 12:17:39;;;;;;;3.92;0.80;;;;;25.20;100213.00;;;;9965914;29;20233;-78
2022/05/24 12:23:02;;;;;;;1.30;0.80;;;;;24.50;100233.00;;;;9995614;29;20229;-79
2022/05/24 12:28:10;;;;;;;1.67;0.85;;;;;22.60;100230.00;;;;10008851;29;20225;-79
2022/05/24 12:33:20;;;;;;;2.97;0.70;;;;;20.70;100252.00;;;;10047178;29;20203;-78
2022/05/24 12:38:27;;;;;;;7.85;1.10;;;;;18.70;100252.00;;;;10064926;29;20205;-78
2022/05/24 12:43:29;;;;;;;1.65;0.55;;;;;18.20;100258.00;;;;10034917;29;20233;-79
2022/05/24 12:48:37;;;;;;;1.38;0.60;;;;;19.70;100265.00;;;;10022829;29;20200;-79
2022/05/24 12:53:39;;;;;;;1.55;0.43;;;;;20.40;100266.00;;;;10016773;29;20197;-79
2022/05/24 12:58:45;;;;;;;0.40;0.40;;;;;20.50;100263.00;;;;10034257;29;20185;-78
2022/05/24 13:04:00;;;;;;;2.65;0.73;;;;;22.00;100267.00;;;;10018715;29;20650;-78
2022/05/24 13:09:27;;;;;;;1.75;0.70;;;;;22.40;100270.00;;;;10016710;29;20236;-78
2022/05/24 13:14:38;;;;;;;1.15;0.88;;;;;21.60;100262.00;;;;10064464;29;20199;-79
2022/05/24 13:19:51;;;;;;;1.52;0.90;;;;;20.80;100275.00;;;;9982782;29;20853;-79
2022/05/24 13:25:00;;;;;;;4.88;1.00;;;;;20.00;100287.00;;;;10017388;29;20212;-79
2022/05/24 13:35:22;;;;;;;3.42;0.88;;;;;19.00;100305.00;;;;10048101;29;20196;-78
2022/05/24 13:40:36;;;;;;;0.50;0.50;;;;;18.10;100298.00;;;;10063484;29;20224;-78
2022/05/24 13:45:38;;;;;;;4.35;0.50;;;;;17.50;100297.00;;;;10016496;29;20205;-78
2022/05/24 13:50:41;;;;;;;1.48;0.65;;;;;19.20;100279.00;;;;10031764;29;20197;-78
2022/05/24 13:55:55;;;;;;;0.80;0.63;;;;;21.60;100279.00;;;;10045988;29;20249;-78
2022/05/24 14:01:09;;;;;;;0.95;0.57;;;;;22.70;100271.00;;;;10030711;29;20224;-78
2022/05/24 14:06:21;;;;;;;1.52;0.47;;;;;27.40;100270.00;;;;10028844;29;20192;-79
2022/05/24 14:11:32;;;;;;;0.95;0.60;;;;;28.40;100283.00;;;;10045385;29;20190;-79
2022/05/24 14:16:33;;;;;;;4.00;1.00;;;;;24.00;100315.00;;;;10029660;29;20264;-78
2022/05/24 14:21:40;;;;;;;5.07;1.00;;;;;20.50;100344.00;;;;10011110;29;20482;-78
2022/05/24 14:26:44;;;;;;;2.65;0.50;;;;;18.30;100353.00;;;;9990434;29;20213;-78
2022/05/24 14:31:47;;;;;;;2.63;0.85;;;;;16.50;100385.00;;;;10018916;29;20208;-78
2022/05/24 14:36:53;;;;;;;2.53;0.70;;;;;15.70;100365.00;;;;10035976;29;20617;-79
2022/05/24 14:41:56;;;;;;;1.17;0.55;;;;;17.80;100321.00;;;;10047494;29;20655;-78
2022/05/24 14:46:58;;;;;;;2.45;0.75;;;;;25.90;100314.00;;;;10027293;29;20204;-78
2022/05/24 14:52:04;;;;;;;2.83;0.40;;;;;28.70;100320.00;;;;10025157;29;20208;-78
2022/05/24 14:57:06;;;;;;;1.40;0.82;;;;;29.80;100319.00;;;;10042471;29;20204;-79
2022/05/24 15:02:08;;;;;;;1.80;0.80;;;;;30.40;100325.00;;;;10044422;29;20577;-79
2022/05/24 15:17:51;;;;;;;1.88;0.98;;;;;32.80;100339.00;;;;10052149;29;20235;-79
2022/05/24 15:23:07;;;;;;;3.38;1.23;;;;;26.90;100357.00;;;;10043986;29;20233;-79
2022/05/24 15:28:12;;;;;;;4.18;1.10;;;;;22.20;100360.00;;;;10067445;29;20200;-78
2022/05/24 15:33:14;;;;;;;2.00;0.80;;;;;22.20;100364.00;;;;10049307;29;20193;-78
2022/05/24 15:38:17;;;;;;;2.45;1.00;;;;;22.40;100360.00;;;;10055876;29;20214;-77
2022/05/24 15:43:19;;;;;;;3.05;1.02;;;;;21.10;100379.00;;;;10045361;29;20704;-78
2022/05/24 15:48:21;;;;;;;1.67;0.90;;;;;20.50;100383.00;;;;10057880;29;20197;-78
2022/05/24 15:53:23;;;;;;;1.33;1.05;;;;;21.40;100382.00;;;;10029958;29;20230;-78
2022/05/24 15:58:26;;;;;;;3.35;1.25;;;;;22.40;100387.00;;;;10041484;29;20751;-78
2022/05/24 16:03:28;;;;;;;1.73;0.80;;;;;21.40;100390.00;;;;10034616;29;20259;-78
2022/05/24 16:14:15;;;;;;;1.10;0.70;;;;;20.20;100387.00;;;;9994364;29;20680;-79
2022/05/24 16:19:18;;;;;;;1.88;0.70;;;;;19.10;100378.00;;;;10046305;29;20605;-78
2022/05/24 16:24:19;;;;;;;1.75;0.90;;;;;19.70;100383.00;;;;10048526;29;20297;-78
2022/05/24 16:29:22;;;;;;;2.28;0.70;;;;;19.60;100383.00;;;;10040438;29;20206;-79
2022/05/24 16:34:23;;;;;;;2.90;1.17;;;;;19.30;100383.00;;;;10048608;29;20694;-79
2022/05/24 16:39:25;;;;;;;2.03;0.85;;;;;19.00;100385.00;;;;10044456;29;20221;-78
2022/05/24 16:44:28;;;;;;;4.10;1.08;;;;;18.70;100376.00;;;;10048891;29;20232;-78
2022/05/24 16:49:30;;;;;;;1.40;0.80;;;;;18.20;100397.00;;;;10033754;29;20261;-79
2022/05/24 16:59:58;;;;;;;2.83;0.75;;;;;17.90;100408.00;;;;10020413;29;20249;-78
2022/05/24 17:05:00;;;;;;;1.45;0.80;;;;;17.90;100397.00;;;;10046767;29;20225;-79
2022/05/24 17:10:02;;;;;;;2.63;0.82;;;;;18.20;100401.00;;;;10032475;29;20229;-79
2022/05/24 17:15:06;;;;;;;3.03;1.10;;;;;17.80;100410.00;;;;10032347;29;20201;-78
2022/05/24 17:20:13;;;;;;;3.05;0.80;;;;;17.60;100409.00;;;;10050497;29;20717;-78
2022/05/24 17:25:16;;;;;;;2.25;1.17;;;;;17.50;100415.00;;;;10032178;29;20209;-78
2022/05/24 17:30:22;;;;;;;2.92;1.15;;;;;17.60;100417.00;;;;10047010;29;20665;-79
2022/05/24 17:35:23;;;;;;;3.13;1.10;;;;;18.00;100421.00;;;;10031989;29;20257;-77
2022/05/24 17:40:26;;;;;;;3.58;1.23;;;;;18.20;100427.00;;;;10045994;29;20304;-78
2022/05/24 17:45:38;;;;;;;1.77;0.80;;;;;18.00;100431.00;;;;10011354;29;20209;-77
2022/05/24 17:50:40;;;;;;;1.40;0.60;;;;;17.90;100431.00;;;;10040275;29;20193;-78
2022/05/24 17:55:45;;;;;;;1.42;0.63;;;;;17.90;100444.00;;;;10020338;29;20216;-78
2022/05/24 18:00:48;;;;;;;3.30;0.55;;;;;18.20;100446.00;;;;10032281;29;20224;-78
2022/05/24 18:05:50;;;;;;;3.00;0.80;;;;;17.80;100449.00;;;;10031049;29;20705;-77
2022/05/24 18:10:52;;;;;;;3.65;1.38;;;;;17.50;100450.00;;;;10046698;29;20194;-78
2022/05/24 18:15:56;;;;;;;2.95;1.85;;;;;17.20;100453.00;;;;9997267;29;20205;-77
2022/05/24 18:21:00;;;;;;;4.57;1.88;;;;;17.10;100462.00;;;;10015767;29;20240;-78
2022/05/24 18:37:02;;;;;;;4.32;2.03;;;;;16.50;100493.00;;;;10024880;29;20204;-77
2022/05/24 18:42:07;;;;;;;2.30;1.70;;;;;16.30;100497.00;;;;9991630;29;20221;-78
2022/05/24 18:47:11;;;;;;;4.13;2.27;;;;;16.30;100513.00;;;;9991432;29;20346;-77
2022/05/24 18:52:13;;;;;;;4.97;2.40;;;;;16.30;100511.00;;;;10048962;29;20564;-77
2022/05/24 18:57:15;;;;;;;4.63;2.20;;;;;16.10;100509.00;;;;10002783;29;20224;-78
2022/05/24 19:02:17;;;;;;;4.00;1.93;;;;;15.90;100527.00;;;;10014853;29;20249;-78
2022/05/24 19:07:21;;;;;;;2.50;1.80;;;;;15.50;100523.00;;;;10050874;29;20200;-78
2022/05/24 19:12:23;;;;;;;2.60;1.87;;;;;15.20;100525.00;;;;10070889;29;20209;-78
2022/05/24 19:17:29;;;;;;;3.77;1.70;;;;;15.00;100535.00;;;;10032163;29;20596;-78
2022/05/24 19:22:32;;;;;;;4.27;1.87;;;;;14.80;100544.00;;;;10051991;29;20252;-79
2022/05/24 19:27:34;;;;;;;2.40;1.83;;;;;14.60;100546.00;;;;10031666;29;20810;-78
2022/05/24 19:32:37;;;;;;;5.50;1.80;;;;;14.30;100553.00;;;;10041029;29;20205;-79
2022/05/24 19:37:39;;;;;;;2.23;2.00;;;;;14.00;100562.00;;;;10034793;29;20204;-78
2022/05/24 19:42:41;;;;;;;3.13;2.07;;;;;13.80;100570.00;;;;10033481;29;20232;-78
2022/05/24 19:47:43;;;;;;;5.23;1.90;;;;;13.50;100581.00;;;;10034358;29;20229;-78
2022/05/24 19:52:47;;;;;;;5.07;2.00;;;;;13.40;100594.00;;;;10051281;29;20253;-78
2022/05/24 19:57:49;;;;;;;5.50;2.70;;;;;13.30;100603.00;;;;10038358;29;20256;-79
2022/05/24 20:02:51;;;;;;;6.80;2.97;;;;;13.10;100599.00;;;;10004637;29;20277;-78
2022/05/24 20:07:53;;;;;;;2.53;2.13;;;;;13.10;100611.00;;;;10031680;29;20221;-78
2022/05/24 20:12:55;;;;;;;5.27;2.67;;;;;12.90;100614.00;;;;10047555;29;20197;-79
2022/05/24 20:17:57;;;;;;;2.70;1.70;;;;;12.80;100622.00;;;;10033237;29;20245;-78
2022/05/24 20:22:58;;;;;;;2.97;2.30;;;;;12.70;100628.00;;;;10088090;29;20848;-79
2022/05/24 20:28:00;;;;;;;4.80;2.93;;;;;12.70;100630.00;;;;10043536;29;20283;-77
2022/05/24 20:33:04;;;;;;;5.03;2.40;;;;;12.60;100635.00;;;;10006999;29;20216;-78
2022/05/24 20:38:11;;;;;;;4.60;2.60;;;;;12.50;100637.00;;;;10035355;29;20204;-78
2022/05/24 20:43:13;;;;;;;5.63;3.10;;;;;12.50;100643.00;;;;10018621;29;20225;-78
2022/05/24 20:48:15;;;;;;;4.13;2.60;;;;;12.50;100654.00;;;;10032178;29;20204;-79
2022/05/24 20:53:17;;;;;;;4.13;2.40;;;;;12.40;100647.00;;;;10018496;29;20194;-78
2022/05/24 20:58:19;;;;;;;3.57;2.40;;;;;12.30;100655.00;;;;10037996;29;20268;-78
2022/05/24 21:03:23;;;;;;;6.43;3.00;;;;;12.10;100652.00;;;;10031424;29;20715;-78
2022/05/24 21:08:25;;;;;;;5.43;2.80;;;;;12.00;100654.00;;;;10016973;29;20284;-78
2022/05/24 21:13:28;;;;;;;3.10;2.63;;;;;11.90;100664.00;;;;10027246;29;20212;-78
2022/05/24 21:18:30;;;;;;;6.10;3.23;;;;;11.80;100677.00;;;;10039025;29;20193;-78
2022/05/24 21:23:32;;;;;;;6.13;2.87;;;;;11.60;100674.00;;;;10070979;29;20306;-78
2022/05/24 21:28:42;;;;;;;4.17;3.33;;;;;11.60;100685.00;;;;10021522;29;20200;-78
2022/05/24 21:33:44;;;;;;;7.23;3.50;;;;;11.50;100672.00;;;;10004666;29;20228;-78
2022/05/24 21:38:46;;;;;;;6.87;3.23;;;;;11.50;100688.00;;;;10023991;29;20198;-79
2022/05/24 21:43:48;;;;;;;8.33;3.30;;;;;11.40;100689.00;;;;9992096;29;20989;-78
2022/05/24 21:48:51;;;;;;;7.63;3.03;;;;;11.40;100700.00;;;;9995576;29;20752;-78
2022/05/24 21:53:53;;;;;;;5.63;2.40;;;;;11.40;100710.00;;;;10019957;29;20805;-78
2022/05/24 21:58:55;;;;;;;4.23;2.03;;;;;11.30;100711.00;;;;10023639;29;20772;-78
2022/05/24 22:03:57;;;;;;;3.43;1.97;;;;;11.40;100713.00;;;;10013378;29;20225;-78
2022/05/24 22:09:00;;;;;;;6.70;2.50;;;;;11.40;100724.00;;;;10027305;29;20207;-78
2022/05/24 22:14:02;;;;;;;4.00;1.50;;;;;11.40;100725.00;;;;10064277;29;20192;-78
2022/05/24 22:19:04;;;;;;;5.07;1.80;;;;;11.30;100732.00;;;;10065826;29;20252;-78
2022/05/24 22:24:06;;;;;;;2.83;1.90;;;;;11.30;100732.00;;;;10042803;29;20288;-78
2022/05/24 22:29:08;;;;;;;5.13;2.20;;;;;11.20;100744.00;;;;10027105;29;20201;-78
2022/05/24 22:34:11;;;;;;;6.07;2.23;;;;;11.10;100747.00;;;;9989329;29;20221;-78
2022/05/24 22:39:13;;;;;;;4.17;1.83;;;;;11.00;100738.00;;;;10004401;29;20201;-77
2022/05/24 22:44:55;;;;;;;7.50;2.10;;;;;11.00;100746.00;;;;10014304;29;20580;-78
2022/05/24 22:49:36;;;;;;;3.17;2.07;;;;;10.90;100754.00;;;;10027272;29;20207;-78
2022/05/24 22:54:42;;;;;;;5.80;2.03;;;;;11.00;100755.00;;;;10012439;29;20225;-78
2022/05/24 22:59:44;;;;;;;7.30;2.57;;;;;10.90;100757.00;;;;10001049;29;20233;-78
2022/05/24 23:04:47;;;;;;;2.53;1.93;;;;;10.80;100749.00;;;;10033765;29;20235;-78
2022/05/24 23:09:50;;;;;;;5.67;2.00;;;;;10.80;100759.00;;;;10049338;29;20209;-78
2022/05/24 23:14:52;;;;;;;3.27;1.60;;;;;10.80;100762.00;;;;10064074;29;20231;-78
2022/05/24 23:19:54;;;;;;;4.10;2.10;;;;;10.80;100763.00;;;;10003834;29;20657;-78
2022/05/24 23:24:56;;;;;;;5.60;2.10;;;;;10.60;100766.00;;;;10008382;29;20232;-78
2022/05/24 23:29:59;;;;;;;7.30;1.90;;;;;10.60;100770.00;;;;10003401;29;20200;-77
2022/05/24 23:35:01;;;;;;;3.23;1.80;;;;;10.40;100773.00;;;;10028937;29;20240;-78
2022/05/24 23:40:05;;;;;;;5.47;1.90;;;;;10.40;100775.00;;;;10017213;29;20216;-78
2022/05/24 23:45:08;;;;;;;7.00;1.83;;;;;10.30;100781.00;;;;10048227;29;20231;-78
2022/05/24 23:50:11;;;;;;;2.47;1.63;;;;;10.30;100792.00;;;;10016560;29;20364;-78
2022/05/24 23:55:13;;;;;;;5.57;2.10;;;;;10.20;100788.00;;;;10031907;29;20213;-78
